sensor_id;sensor_type;location;lat;lon;timestamp;P1;durP1;ratioP1;P2;durP2;ratioP2
81952;SDS011;71454;55.476;14.282;2024-02-16T00:01:22;49.57;;;6.47;;
81952;SDS011;71454;55.476;14.282;2024-02-16T00:03:47;35.00;;;5.73;;
81952;SDS011;71454;55.476;14.282;2024-02-16T00:06:12;39.20;;;6.20;;
81952;SDS011;71454;55.476;14.282;2024-02-16T00:08:37;46.63;;;6.00;;
81952;SDS011;71454;55.476;14.282;2024-02-16T00:11:04;49.63;;;7.32;;
81952;SDS011;71454;55.476;14.282;2024-02-16T00:13:29;28.98;;;5.45;;
81952;SDS011;71454;55.476;14.282;2024-02-16T00:15:54;39.37;;;6.07;;
81952;SDS011;71454;55.476;14.282;2024-02-16T00:18:19;34.63;;;5.88;;
81952;SDS011;71454;55.476;14.282;2024-02-16T00:20:45;42.42;;;6.85;;
81952;SDS011;71454;55.476;14.282;2024-02-16T00:23:11;39.22;;;6.22;;
81952;SDS011;71454;55.476;14.282;2024-02-16T00:25:36;37.78;;;5.60;;
81952;SDS011;71454;55.476;14.282;2024-02-16T00:28:03;30.58;;;5.40;;
81952;SDS011;71454;55.476;14.282;2024-02-16T00:30:28;48.08;;;7.32;;
81952;SDS011;71454;55.476;14.282;2024-02-16T00:32:53;31.15;;;6.93;;
81952;SDS011;71454;55.476;14.282;2024-02-16T00:35:19;34.22;;;6.22;;
81952;SDS011;71454;55.476;14.282;2024-02-16T00:37:44;36.27;;;6.13;;
81952;SDS011;71454;55.476;14.282;2024-02-16T00:40:10;32.92;;;5.43;;
81952;SDS011;71454;55.476;14.282;2024-02-16T00:42:36;21.63;;;4.78;;
81952;SDS011;71454;55.476;14.282;2024-02-16T00:45:02;42.47;;;6.22;;
81952;SDS011;71454;55.476;14.282;2024-02-16T00:47:28;30.33;;;5.75;;
81952;SDS011;71454;55.476;14.282;2024-02-16T00:49:54;31.70;;;5.78;;
81952;SDS011;71454;55.476;14.282;2024-02-16T00:52:19;29.80;;;5.70;;
81952;SDS011;71454;55.476;14.282;2024-02-16T00:54:44;26.10;;;4.17;;
81952;SDS011;71454;55.476;14.282;2024-02-16T00:57:11;35.83;;;6.35;;
81952;SDS011;71454;55.476;14.282;2024-02-16T00:59:39;30.73;;;5.22;;
81952;SDS011;71454;55.476;14.282;2024-02-16T01:02:04;26.13;;;5.90;;
81952;SDS011;71454;55.476;14.282;2024-02-16T01:04:30;39.45;;;5.28;;
81952;SDS011;71454;55.476;14.282;2024-02-16T01:06:55;38.72;;;6.05;;
81952;SDS011;71454;55.476;14.282;2024-02-16T01:09:20;24.45;;;5.13;;
81952;SDS011;71454;55.476;14.282;2024-02-16T01:11:46;45.22;;;6.18;;
81952;SDS011;71454;55.476;14.282;2024-02-16T01:14:11;39.40;;;6.05;;
81952;SDS011;71454;55.476;14.282;2024-02-16T01:16:37;43.33;;;6.32;;
81952;SDS011;71454;55.476;14.282;2024-02-16T01:19:02;50.13;;;6.90;;
81952;SDS011;71454;55.476;14.282;2024-02-16T01:21:27;32.13;;;7.25;;
81952;SDS011;71454;55.476;14.282;2024-02-16T01:23:53;38.00;;;5.72;;
81952;SDS011;71454;55.476;14.282;2024-02-16T01:26:18;48.38;;;6.55;;
81952;SDS011;71454;55.476;14.282;2024-02-16T01:28:43;57.08;;;7.03;;
81952;SDS011;71454;55.476;14.282;2024-02-16T01:31:09;35.87;;;6.07;;
81952;SDS011;71454;55.476;14.282;2024-02-16T01:33:35;40.28;;;6.68;;
81952;SDS011;71454;55.476;14.282;2024-02-16T01:36:00;26.40;;;5.95;;
81952;SDS011;71454;55.476;14.282;2024-02-16T01:38:26;61.97;;;7.22;;
81952;SDS011;71454;55.476;14.282;2024-02-16T01:40:51;43.08;;;6.10;;
81952;SDS011;71454;55.476;14.282;2024-02-16T01:43:20;47.67;;;6.05;;
81952;SDS011;71454;55.476;14.282;2024-02-16T01:45:45;39.80;;;6.88;;
81952;SDS011;71454;55.476;14.282;2024-02-16T01:48:10;60.22;;;7.03;;
81952;SDS011;71454;55.476;14.282;2024-02-16T01:50:36;62.47;;;11.20;;
81952;SDS011;71454;55.476;14.282;2024-02-16T01:53:01;51.17;;;7.32;;
81952;SDS011;71454;55.476;14.282;2024-02-16T01:55:27;35.70;;;6.07;;
81952;SDS011;71454;55.476;14.282;2024-02-16T01:57:52;45.90;;;7.97;;
81952;SDS011;71454;55.476;14.282;2024-02-16T02:00:17;40.27;;;7.70;;
81952;SDS011;71454;55.476;14.282;2024-02-16T02:02:46;53.65;;;5.78;;
81952;SDS011;71454;55.476;14.282;2024-02-16T02:05:12;35.97;;;4.82;;
81952;SDS011;71454;55.476;14.282;2024-02-16T02:07:38;35.70;;;5.43;;
81952;SDS011;71454;55.476;14.282;2024-02-16T02:10:03;43.75;;;6.43;;
81952;SDS011;71454;55.476;14.282;2024-02-16T02:12:28;53.33;;;8.50;;
81952;SDS011;71454;55.476;14.282;2024-02-16T02:14:54;47.78;;;4.88;;
81952;SDS011;71454;55.476;14.282;2024-02-16T02:17:19;50.60;;;6.47;;
81952;SDS011;71454;55.476;14.282;2024-02-16T02:19:45;51.55;;;5.88;;
81952;SDS011;71454;55.476;14.282;2024-02-16T02:22:14;57.10;;;7.43;;
81952;SDS011;71454;55.476;14.282;2024-02-16T02:24:39;82.80;;;8.93;;
81952;SDS011;71454;55.476;14.282;2024-02-16T02:27:04;56.40;;;7.32;;
81952;SDS011;71454;55.476;14.282;2024-02-16T02:29:30;72.05;;;9.23;;
81952;SDS011;71454;55.476;14.282;2024-02-16T02:31:55;52.72;;;7.03;;
81952;SDS011;71454;55.476;14.282;2024-02-16T02:34:20;47.97;;;6.63;;
81952;SDS011;71454;55.476;14.282;2024-02-16T02:36:46;44.40;;;7.60;;
81952;SDS011;71454;55.476;14.282;2024-02-16T02:39:11;35.88;;;5.75;;
81952;SDS011;71454;55.476;14.282;2024-02-16T02:41:38;37.30;;;7.50;;
81952;SDS011;71454;55.476;14.282;2024-02-16T02:44:03;30.02;;;5.82;;
81952;SDS011;71454;55.476;14.282;2024-02-16T02:46:30;41.80;;;7.40;;
81952;SDS011;71454;55.476;14.282;2024-02-16T02:48:55;31.85;;;6.90;;
81952;SDS011;71454;55.476;14.282;2024-02-16T02:51:20;45.35;;;6.80;;
81952;SDS011;71454;55.476;14.282;2024-02-16T02:53:46;39.03;;;7.70;;
81952;SDS011;71454;55.476;14.282;2024-02-16T02:56:11;30.38;;;7.28;;
81952;SDS011;71454;55.476;14.282;2024-02-16T02:58:38;64.68;;;7.53;;
81952;SDS011;71454;55.476;14.282;2024-02-16T03:01:03;44.75;;;6.53;;
81952;SDS011;71454;55.476;14.282;2024-02-16T03:03:30;33.90;;;6.15;;
81952;SDS011;71454;55.476;14.282;2024-02-16T03:05:55;52.92;;;6.78;;
81952;SDS011;71454;55.476;14.282;2024-02-16T03:08:20;28.17;;;6.50;;
81952;SDS011;71454;55.476;14.282;2024-02-16T03:10:46;44.40;;;7.80;;
81952;SDS011;71454;55.476;14.282;2024-02-16T03:13:11;68.63;;;9.15;;
81952;SDS011;71454;55.476;14.282;2024-02-16T03:15:38;81.43;;;9.25;;
81952;SDS011;71454;55.476;14.282;2024-02-16T03:18:04;63.85;;;7.78;;
81952;SDS011;71454;55.476;14.282;2024-02-16T03:20:29;59.05;;;6.95;;
81952;SDS011;71454;55.476;14.282;2024-02-16T03:22:55;65.97;;;10.77;;
81952;SDS011;71454;55.476;14.282;2024-02-16T03:25:20;52.45;;;7.28;;
81952;SDS011;71454;55.476;14.282;2024-02-16T03:27:46;65.50;;;7.20;;
81952;SDS011;71454;55.476;14.282;2024-02-16T03:30:11;110.65;;;9.82;;
81952;SDS011;71454;55.476;14.282;2024-02-16T03:32:36;100.32;;;10.32;;
81952;SDS011;71454;55.476;14.282;2024-02-16T03:35:02;79.78;;;10.65;;
81952;SDS011;71454;55.476;14.282;2024-02-16T03:37:29;102.63;;;10.35;;
81952;SDS011;71454;55.476;14.282;2024-02-16T03:39:54;90.03;;;13.48;;
81952;SDS011;71454;55.476;14.282;2024-02-16T03:42:19;90.83;;;10.07;;
81952;SDS011;71454;55.476;14.282;2024-02-16T03:44:45;97.88;;;9.65;;
81952;SDS011;71454;55.476;14.282;2024-02-16T03:47:11;119.47;;;13.48;;
81952;SDS011;71454;55.476;14.282;2024-02-16T03:49:37;112.20;;;12.77;;
81952;SDS011;71454;55.476;14.282;2024-02-16T03:52:02;90.55;;;10.50;;
81952;SDS011;71454;55.476;14.282;2024-02-16T03:54:28;117.10;;;11.57;;
81952;SDS011;71454;55.476;14.282;2024-02-16T03:56:54;106.15;;;13.48;;
81952;SDS011;71454;55.476;14.282;2024-02-16T03:59:19;85.00;;;11.05;;
81952;SDS011;71454;55.476;14.282;2024-02-16T04:01:44;130.30;;;15.83;;
81952;SDS011;71454;55.476;14.282;2024-02-16T04:04:10;48.22;;;10.68;;
81952;SDS011;71454;55.476;14.282;2024-02-16T04:06:35;47.72;;;8.73;;
81952;SDS011;71454;55.476;14.282;2024-02-16T04:09:01;40.58;;;8.45;;
81952;SDS011;71454;55.476;14.282;2024-02-16T04:11:26;62.85;;;11.02;;
81952;SDS011;71454;55.476;14.282;2024-02-16T04:13:54;46.28;;;8.70;;
81952;SDS011;71454;55.476;14.282;2024-02-16T04:16:19;40.13;;;7.32;;
81952;SDS011;71454;55.476;14.282;2024-02-16T04:18:47;41.88;;;8.30;;
81952;SDS011;71454;55.476;14.282;2024-02-16T04:21:12;43.53;;;7.85;;
81952;SDS011;71454;55.476;14.282;2024-02-16T04:23:37;23.98;;;7.30;;
81952;SDS011;71454;55.476;14.282;2024-02-16T04:26:03;30.88;;;6.13;;
81952;SDS011;71454;55.476;14.282;2024-02-16T04:28:29;45.28;;;7.25;;
81952;SDS011;71454;55.476;14.282;2024-02-16T04:30:54;42.17;;;8.57;;
81952;SDS011;71454;55.476;14.282;2024-02-16T04:33:19;43.63;;;7.60;;
81952;SDS011;71454;55.476;14.282;2024-02-16T04:35:45;42.65;;;6.07;;
81952;SDS011;71454;55.476;14.282;2024-02-16T04:38:13;36.88;;;5.22;;
81952;SDS011;71454;55.476;14.282;2024-02-16T04:40:38;45.53;;;6.70;;
81952;SDS011;71454;55.476;14.282;2024-02-16T04:43:03;26.73;;;6.53;;
81952;SDS011;71454;55.476;14.282;2024-02-16T04:45:29;20.17;;;5.70;;
81952;SDS011;71454;55.476;14.282;2024-02-16T04:47:55;34.95;;;8.15;;
81952;SDS011;71454;55.476;14.282;2024-02-16T04:50:20;28.83;;;5.63;;
81952;SDS011;71454;55.476;14.282;2024-02-16T04:52:46;24.83;;;5.45;;
81952;SDS011;71454;55.476;14.282;2024-02-16T04:55:11;18.85;;;5.22;;
81952;SDS011;71454;55.476;14.282;2024-02-16T04:57:36;22.42;;;6.15;;
81952;SDS011;71454;55.476;14.282;2024-02-16T05:00:02;20.52;;;5.63;;
81952;SDS011;71454;55.476;14.282;2024-02-16T05:02:28;23.52;;;5.93;;
81952;SDS011;71454;55.476;14.282;2024-02-16T05:04:53;22.02;;;5.20;;
81952;SDS011;71454;55.476;14.282;2024-02-16T05:07:19;21.50;;;6.53;;
81952;SDS011;71454;55.476;14.282;2024-02-16T05:09:44;27.63;;;6.63;;
81952;SDS011;71454;55.476;14.282;2024-02-16T05:12:10;21.17;;;6.65;;
81952;SDS011;71454;55.476;14.282;2024-02-16T05:14:35;26.25;;;7.07;;
81952;SDS011;71454;55.476;14.282;2024-02-16T05:17:01;27.20;;;7.93;;
81952;SDS011;71454;55.476;14.282;2024-02-16T05:19:26;24.10;;;8.60;;
81952;SDS011;71454;55.476;14.282;2024-02-16T05:21:51;25.43;;;9.13;;
81952;SDS011;71454;55.476;14.282;2024-02-16T05:24:17;23.48;;;7.70;;
81952;SDS011;71454;55.476;14.282;2024-02-16T05:26:42;24.65;;;8.98;;
81952;SDS011;71454;55.476;14.282;2024-02-16T05:29:07;25.65;;;9.40;;
81952;SDS011;71454;55.476;14.282;2024-02-16T05:31:33;26.08;;;9.73;;
81952;SDS011;71454;55.476;14.282;2024-02-16T05:33:58;28.17;;;10.07;;
81952;SDS011;71454;55.476;14.282;2024-02-16T05:36:24;28.92;;;10.73;;
81952;SDS011;71454;55.476;14.282;2024-02-16T05:38:52;30.00;;;10.65;;
81952;SDS011;71454;55.476;14.282;2024-02-16T05:41:20;37.95;;;11.65;;
81952;SDS011;71454;55.476;14.282;2024-02-16T05:43:45;34.92;;;11.88;;
81952;SDS011;71454;55.476;14.282;2024-02-16T05:46:14;34.25;;;12.57;;
81952;SDS011;71454;55.476;14.282;2024-02-16T05:48:39;38.67;;;11.82;;
81952;SDS011;71454;55.476;14.282;2024-02-16T05:51:05;37.58;;;13.77;;
81952;SDS011;71454;55.476;14.282;2024-02-16T05:53:34;42.97;;;15.02;;
81952;SDS011;71454;55.476;14.282;2024-02-16T05:55:59;36.25;;;13.70;;
81952;SDS011;71454;55.476;14.282;2024-02-16T05:58:25;51.70;;;14.63;;
81952;SDS011;71454;55.476;14.282;2024-02-16T06:00:50;48.85;;;14.85;;
81952;SDS011;71454;55.476;14.282;2024-02-16T06:03:15;67.80;;;17.95;;
81952;SDS011;71454;55.476;14.282;2024-02-16T06:05:41;73.78;;;16.77;;
81952;SDS011;71454;55.476;14.282;2024-02-16T06:08:09;75.72;;;16.77;;
81952;SDS011;71454;55.476;14.282;2024-02-16T06:10:35;62.40;;;17.00;;
81952;SDS011;71454;55.476;14.282;2024-02-16T06:13:00;77.80;;;15.93;;
81952;SDS011;71454;55.476;14.282;2024-02-16T06:15:25;62.33;;;17.53;;
81952;SDS011;71454;55.476;14.282;2024-02-16T06:17:51;56.47;;;16.33;;
81952;SDS011;71454;55.476;14.282;2024-02-16T06:20:17;67.78;;;17.10;;
81952;SDS011;71454;55.476;14.282;2024-02-16T06:22:42;48.75;;;17.17;;
81952;SDS011;71454;55.476;14.282;2024-02-16T06:25:08;58.20;;;19.42;;
81952;SDS011;71454;55.476;14.282;2024-02-16T06:27:33;56.08;;;18.23;;
81952;SDS011;71454;55.476;14.282;2024-02-16T06:29:59;52.58;;;17.25;;
81952;SDS011;71454;55.476;14.282;2024-02-16T06:32:24;49.88;;;16.88;;
81952;SDS011;71454;55.476;14.282;2024-02-16T06:34:50;48.70;;;17.30;;
81952;SDS011;71454;55.476;14.282;2024-02-16T06:37:15;42.67;;;16.35;;
81952;SDS011;71454;55.476;14.282;2024-02-16T06:39:40;49.53;;;17.10;;
81952;SDS011;71454;55.476;14.282;2024-02-16T06:42:05;49.90;;;15.77;;
81952;SDS011;71454;55.476;14.282;2024-02-16T06:44:31;46.92;;;17.48;;
81952;SDS011;71454;55.476;14.282;2024-02-16T06:46:56;42.57;;;16.47;;
81952;SDS011;71454;55.476;14.282;2024-02-16T06:49:21;44.47;;;18.15;;
81952;SDS011;71454;55.476;14.282;2024-02-16T06:51:47;42.23;;;16.63;;
81952;SDS011;71454;55.476;14.282;2024-02-16T06:54:12;41.08;;;16.48;;
81952;SDS011;71454;55.476;14.282;2024-02-16T06:56:37;39.90;;;16.73;;
81952;SDS011;71454;55.476;14.282;2024-02-16T06:59:03;39.22;;;16.17;;
81952;SDS011;71454;55.476;14.282;2024-02-16T07:01:28;40.25;;;16.55;;
81952;SDS011;71454;55.476;14.282;2024-02-16T07:03:53;38.40;;;16.30;;
81952;SDS011;71454;55.476;14.282;2024-02-16T07:06:19;38.78;;;15.68;;
81952;SDS011;71454;55.476;14.282;2024-02-16T07:08:44;43.50;;;16.47;;
81952;SDS011;71454;55.476;14.282;2024-02-16T07:11:10;56.33;;;18.83;;
81952;SDS011;71454;55.476;14.282;2024-02-16T07:13:39;39.63;;;16.17;;
81952;SDS011;71454;55.476;14.282;2024-02-16T07:16:04;37.15;;;15.60;;
81952;SDS011;71454;55.476;14.282;2024-02-16T07:18:31;49.42;;;17.33;;
81952;SDS011;71454;55.476;14.282;2024-02-16T07:20:57;35.63;;;15.35;;
81952;SDS011;71454;55.476;14.282;2024-02-16T07:23:24;63.13;;;16.98;;
81952;SDS011;71454;55.476;14.282;2024-02-16T07:25:49;47.90;;;17.73;;
81952;SDS011;71454;55.476;14.282;2024-02-16T07:28:14;41.22;;;16.65;;
81952;SDS011;71454;55.476;14.282;2024-02-16T07:30:40;31.65;;;14.15;;
81952;SDS011;71454;55.476;14.282;2024-02-16T07:33:05;32.38;;;13.93;;
81952;SDS011;71454;55.476;14.282;2024-02-16T07:35:32;36.55;;;15.05;;
81952;SDS011;71454;55.476;14.282;2024-02-16T07:37:58;40.75;;;16.70;;
81952;SDS011;71454;55.476;14.282;2024-02-16T07:40:23;34.92;;;16.10;;
81952;SDS011;71454;55.476;14.282;2024-02-16T07:42:48;28.90;;;14.27;;
81952;SDS011;71454;55.476;14.282;2024-02-16T07:45:13;41.93;;;16.97;;
81952;SDS011;71454;55.476;14.282;2024-02-16T07:47:42;41.15;;;17.45;;
81952;SDS011;71454;55.476;14.282;2024-02-16T07:50:07;37.63;;;17.63;;
81952;SDS011;71454;55.476;14.282;2024-02-16T07:52:33;41.42;;;18.00;;
81952;SDS011;71454;55.476;14.282;2024-02-16T07:54:58;37.03;;;16.50;;
81952;SDS011;71454;55.476;14.282;2024-02-16T07:57:24;40.42;;;17.58;;
81952;SDS011;71454;55.476;14.282;2024-02-16T07:59:49;41.78;;;17.17;;
81952;SDS011;71454;55.476;14.282;2024-02-16T08:02:14;37.85;;;16.40;;
81952;SDS011;71454;55.476;14.282;2024-02-16T08:04:49;40.50;;;16.17;;
81952;SDS011;71454;55.476;14.282;2024-02-16T08:07:15;35.70;;;16.45;;
81952;SDS011;71454;55.476;14.282;2024-02-16T08:09:45;36.53;;;16.88;;
81952;SDS011;71454;55.476;14.282;2024-02-16T08:12:14;39.40;;;16.48;;
81952;SDS011;71454;55.476;14.282;2024-02-16T08:14:39;33.88;;;15.90;;
81952;SDS011;71454;55.476;14.282;2024-02-16T08:17:07;37.25;;;14.63;;
81952;SDS011;71454;55.476;14.282;2024-02-16T08:19:34;41.25;;;16.85;;
81952;SDS011;71454;55.476;14.282;2024-02-16T08:22:03;41.42;;;16.30;;
81952;SDS011;71454;55.476;14.282;2024-02-16T08:24:29;52.95;;;15.95;;
81952;SDS011;71454;55.476;14.282;2024-02-16T08:26:54;70.47;;;18.65;;
81952;SDS011;71454;55.476;14.282;2024-02-16T08:29:21;77.15;;;17.77;;
81952;SDS011;71454;55.476;14.282;2024-02-16T08:31:49;69.38;;;16.52;;
81952;SDS011;71454;55.476;14.282;2024-02-16T08:34:15;58.80;;;16.70;;
81952;SDS011;71454;55.476;14.282;2024-02-16T08:36:44;53.97;;;14.77;;
81952;SDS011;71454;55.476;14.282;2024-02-16T08:39:09;51.65;;;17.13;;
81952;SDS011;71454;55.476;14.282;2024-02-16T08:41:36;69.28;;;16.48;;
81952;SDS011;71454;55.476;14.282;2024-02-16T08:44:02;51.33;;;14.60;;
81952;SDS011;71454;55.476;14.282;2024-02-16T08:46:27;76.68;;;16.48;;
81952;SDS011;71454;55.476;14.282;2024-02-16T08:48:52;58.78;;;16.10;;
81952;SDS011;71454;55.476;14.282;2024-02-16T08:51:20;45.37;;;14.47;;
81952;SDS011;71454;55.476;14.282;2024-02-16T08:53:45;49.63;;;14.23;;
81952;SDS011;71454;55.476;14.282;2024-02-16T08:56:10;46.97;;;15.43;;
81952;SDS011;71454;55.476;14.282;2024-02-16T08:58:37;34.10;;;15.57;;
81952;SDS011;71454;55.476;14.282;2024-02-16T09:01:02;37.40;;;14.98;;
81952;SDS011;71454;55.476;14.282;2024-02-16T09:03:28;36.78;;;16.23;;
81952;SDS011;71454;55.476;14.282;2024-02-16T09:05:53;36.47;;;15.63;;
81952;SDS011;71454;55.476;14.282;2024-02-16T09:08:18;36.05;;;15.02;;
81952;SDS011;71454;55.476;14.282;2024-02-16T09:10:43;32.45;;;15.05;;
81952;SDS011;71454;55.476;14.282;2024-02-16T09:13:09;39.05;;;16.08;;
81952;SDS011;71454;55.476;14.282;2024-02-16T09:15:34;37.10;;;16.47;;
81952;SDS011;71454;55.476;14.282;2024-02-16T09:17:59;37.63;;;16.08;;
81952;SDS011;71454;55.476;14.282;2024-02-16T09:20:25;35.33;;;16.15;;
81952;SDS011;71454;55.476;14.282;2024-02-16T09:22:50;36.03;;;15.63;;
81952;SDS011;71454;55.476;14.282;2024-02-16T09:25:16;29.55;;;14.88;;
81952;SDS011;71454;55.476;14.282;2024-02-16T09:27:41;32.30;;;14.43;;
81952;SDS011;71454;55.476;14.282;2024-02-16T09:30:10;28.60;;;14.40;;
81952;SDS011;71454;55.476;14.282;2024-02-16T09:32:36;31.77;;;13.63;;
81952;SDS011;71454;55.476;14.282;2024-02-16T09:35:02;28.10;;;14.02;;
81952;SDS011;71454;55.476;14.282;2024-02-16T09:37:27;33.65;;;15.05;;
81952;SDS011;71454;55.476;14.282;2024-02-16T09:39:52;27.93;;;14.40;;
81952;SDS011;71454;55.476;14.282;2024-02-16T09:42:19;32.08;;;15.43;;
81952;SDS011;71454;55.476;14.282;2024-02-16T09:44:45;30.80;;;13.80;;
81952;SDS011;71454;55.476;14.282;2024-02-16T09:47:10;35.58;;;15.40;;
81952;SDS011;71454;55.476;14.282;2024-02-16T09:49:39;29.33;;;13.40;;
81952;SDS011;71454;55.476;14.282;2024-02-16T09:52:04;28.15;;;14.73;;
81952;SDS011;71454;55.476;14.282;2024-02-16T09:54:33;30.50;;;14.07;;
81952;SDS011;71454;55.476;14.282;2024-02-16T09:57:03;26.58;;;14.15;;
81952;SDS011;71454;55.476;14.282;2024-02-16T09:59:29;29.13;;;14.13;;
81952;SDS011;71454;55.476;14.282;2024-02-16T10:01:59;25.52;;;13.23;;
81952;SDS011;71454;55.476;14.282;2024-02-16T10:04:25;26.48;;;13.38;;
81952;SDS011;71454;55.476;14.282;2024-02-16T10:06:50;29.00;;;14.85;;
81952;SDS011;71454;55.476;14.282;2024-02-16T10:09:26;27.38;;;13.98;;
81952;SDS011;71454;55.476;14.282;2024-02-16T10:11:51;27.67;;;12.63;;
81952;SDS011;71454;55.476;14.282;2024-02-16T10:14:17;28.80;;;13.95;;
81952;SDS011;71454;55.476;14.282;2024-02-16T10:16:44;28.95;;;14.32;;
81952;SDS011;71454;55.476;14.282;2024-02-16T10:19:09;30.60;;;13.82;;
81952;SDS011;71454;55.476;14.282;2024-02-16T10:21:38;27.58;;;13.38;;
81952;SDS011;71454;55.476;14.282;2024-02-16T10:24:07;23.25;;;11.23;;
81952;SDS011;71454;55.476;14.282;2024-02-16T10:26:34;27.65;;;12.93;;
81952;SDS011;71454;55.476;14.282;2024-02-16T10:29:02;29.30;;;13.90;;
81952;SDS011;71454;55.476;14.282;2024-02-16T10:31:28;29.35;;;14.75;;
81952;SDS011;71454;55.476;14.282;2024-02-16T10:33:58;29.80;;;12.93;;
81952;SDS011;71454;55.476;14.282;2024-02-16T10:36:24;32.03;;;13.32;;
81952;SDS011;71454;55.476;14.282;2024-02-16T10:38:50;25.60;;;13.98;;
81952;SDS011;71454;55.476;14.282;2024-02-16T10:41:16;30.42;;;14.40;;
81952;SDS011;71454;55.476;14.282;2024-02-16T10:43:42;30.60;;;13.53;;
81952;SDS011;71454;55.476;14.282;2024-02-16T10:46:07;31.30;;;14.75;;
81952;SDS011;71454;55.476;14.282;2024-02-16T10:48:33;26.52;;;13.20;;
81952;SDS011;71454;55.476;14.282;2024-02-16T10:50:58;30.97;;;14.37;;
81952;SDS011;71454;55.476;14.282;2024-02-16T10:53:25;29.60;;;13.68;;
81952;SDS011;71454;55.476;14.282;2024-02-16T10:55:51;25.77;;;13.10;;
81952;SDS011;71454;55.476;14.282;2024-02-16T10:58:17;30.75;;;14.18;;
81952;SDS011;71454;55.476;14.282;2024-02-16T11:00:49;28.40;;;13.75;;
81952;SDS011;71454;55.476;14.282;2024-02-16T11:03:16;29.60;;;13.52;;
81952;SDS011;71454;55.476;14.282;2024-02-16T11:05:44;25.92;;;14.55;;
81952;SDS011;71454;55.476;14.282;2024-02-16T11:08:15;24.88;;;13.35;;
81952;SDS011;71454;55.476;14.282;2024-02-16T11:10:41;26.52;;;13.10;;
81952;SDS011;71454;55.476;14.282;2024-02-16T11:13:06;28.90;;;13.25;;
81952;SDS011;71454;55.476;14.282;2024-02-16T11:15:35;29.05;;;13.63;;
81952;SDS011;71454;55.476;14.282;2024-02-16T11:18:02;30.02;;;13.73;;
81952;SDS011;71454;55.476;14.282;2024-02-16T11:20:28;26.38;;;13.68;;
81952;SDS011;71454;55.476;14.282;2024-02-16T11:22:53;24.83;;;12.50;;
81952;SDS011;71454;55.476;14.282;2024-02-16T11:25:19;28.38;;;12.43;;
81952;SDS011;71454;55.476;14.282;2024-02-16T11:27:46;25.83;;;12.20;;
81952;SDS011;71454;55.476;14.282;2024-02-16T11:30:12;25.67;;;12.93;;
81952;SDS011;71454;55.476;14.282;2024-02-16T11:32:37;22.55;;;11.75;;
81952;SDS011;71454;55.476;14.282;2024-02-16T11:35:06;28.13;;;12.63;;
81952;SDS011;71454;55.476;14.282;2024-02-16T11:37:32;30.38;;;12.70;;
81952;SDS011;71454;55.476;14.282;2024-02-16T11:39:57;27.23;;;14.00;;
81952;SDS011;71454;55.476;14.282;2024-02-16T11:42:22;24.75;;;12.23;;
81952;SDS011;71454;55.476;14.282;2024-02-16T11:44:54;24.58;;;12.77;;
81952;SDS011;71454;55.476;14.282;2024-02-16T11:47:20;25.83;;;12.73;;
81952;SDS011;71454;55.476;14.282;2024-02-16T11:50:11;25.42;;;12.57;;
81952;SDS011;71454;55.476;14.282;2024-02-16T11:52:39;26.85;;;12.20;;
81952;SDS011;71454;55.476;14.282;2024-02-16T11:55:07;27.50;;;12.90;;
81952;SDS011;71454;55.476;14.282;2024-02-16T11:57:33;25.17;;;12.02;;
81952;SDS011;71454;55.476;14.282;2024-02-16T11:59:59;25.25;;;13.27;;
81952;SDS011;71454;55.476;14.282;2024-02-16T12:02:25;23.30;;;12.02;;
81952;SDS011;71454;55.476;14.282;2024-02-16T12:04:57;25.58;;;13.25;;
81952;SDS011;71454;55.476;14.282;2024-02-16T12:07:25;27.30;;;12.85;;
81952;SDS011;71454;55.476;14.282;2024-02-16T12:10:00;22.88;;;12.73;;
81952;SDS011;71454;55.476;14.282;2024-02-16T12:12:26;23.40;;;12.00;;
81952;SDS011;71454;55.476;14.282;2024-02-16T12:14:52;25.40;;;11.90;;
81952;SDS011;71454;55.476;14.282;2024-02-16T12:17:18;23.35;;;10.93;;
81952;SDS011;71454;55.476;14.282;2024-02-16T12:19:43;23.92;;;11.73;;
81952;SDS011;71454;55.476;14.282;2024-02-16T12:22:10;23.88;;;10.40;;
81952;SDS011;71454;55.476;14.282;2024-02-16T12:24:35;25.55;;;12.80;;
81952;SDS011;71454;55.476;14.282;2024-02-16T12:27:00;21.73;;;11.93;;
81952;SDS011;71454;55.476;14.282;2024-02-16T12:29:26;23.98;;;11.75;;
81952;SDS011;71454;55.476;14.282;2024-02-16T12:31:51;22.67;;;11.60;;
81952;SDS011;71454;55.476;14.282;2024-02-16T12:34:16;25.10;;;13.18;;
81952;SDS011;71454;55.476;14.282;2024-02-16T12:36:42;21.83;;;11.30;;
81952;SDS011;71454;55.476;14.282;2024-02-16T12:39:07;24.13;;;11.77;;
81952;SDS011;71454;55.476;14.282;2024-02-16T12:41:34;19.85;;;10.50;;
81952;SDS011;71454;55.476;14.282;2024-02-16T12:43:59;24.25;;;11.25;;
81952;SDS011;71454;55.476;14.282;2024-02-16T12:46:25;23.55;;;11.05;;
81952;SDS011;71454;55.476;14.282;2024-02-16T12:48:50;21.27;;;10.65;;
81952;SDS011;71454;55.476;14.282;2024-02-16T12:51:16;19.77;;;9.98;;
81952;SDS011;71454;55.476;14.282;2024-02-16T12:53:41;23.75;;;11.48;;
81952;SDS011;71454;55.476;14.282;2024-02-16T12:56:07;25.35;;;11.52;;
81952;SDS011;71454;55.476;14.282;2024-02-16T12:58:33;19.20;;;10.32;;
81952;SDS011;71454;55.476;14.282;2024-02-16T13:00:58;23.02;;;11.65;;
81952;SDS011;71454;55.476;14.282;2024-02-16T13:03:24;24.90;;;11.98;;
81952;SDS011;71454;55.476;14.282;2024-02-16T13:05:49;25.60;;;12.30;;
81952;SDS011;71454;55.476;14.282;2024-02-16T13:08:14;22.02;;;10.88;;
81952;SDS011;71454;55.476;14.282;2024-02-16T13:10:40;24.80;;;11.38;;
81952;SDS011;71454;55.476;14.282;2024-02-16T13:13:06;25.88;;;11.15;;
81952;SDS011;71454;55.476;14.282;2024-02-16T13:15:31;24.42;;;11.30;;
81952;SDS011;71454;55.476;14.282;2024-02-16T13:17:57;24.05;;;11.30;;
81952;SDS011;71454;55.476;14.282;2024-02-16T13:20:22;23.75;;;11.95;;
81952;SDS011;71454;55.476;14.282;2024-02-16T13:22:48;21.10;;;11.10;;
81952;SDS011;71454;55.476;14.282;2024-02-16T13:25:13;21.33;;;10.80;;
81952;SDS011;71454;55.476;14.282;2024-02-16T13:27:38;22.45;;;11.07;;
81952;SDS011;71454;55.476;14.282;2024-02-16T13:30:04;21.50;;;11.00;;
81952;SDS011;71454;55.476;14.282;2024-02-16T13:32:32;22.52;;;10.10;;
81952;SDS011;71454;55.476;14.282;2024-02-16T13:34:57;19.63;;;9.73;;
81952;SDS011;71454;55.476;14.282;2024-02-16T13:37:22;21.23;;;10.13;;
81952;SDS011;71454;55.476;14.282;2024-02-16T13:39:48;18.85;;;10.02;;
81952;SDS011;71454;55.476;14.282;2024-02-16T13:42:13;21.70;;;10.40;;
81952;SDS011;71454;55.476;14.282;2024-02-16T13:44:39;20.63;;;10.20;;
81952;SDS011;71454;55.476;14.282;2024-02-16T13:47:04;17.98;;;10.15;;
81952;SDS011;71454;55.476;14.282;2024-02-16T13:49:30;19.98;;;10.20;;
81952;SDS011;71454;55.476;14.282;2024-02-16T13:51:56;17.17;;;8.90;;
81952;SDS011;71454;55.476;14.282;2024-02-16T13:54:24;22.02;;;9.90;;
81952;SDS011;71454;55.476;14.282;2024-02-16T13:56:49;17.30;;;9.38;;
81952;SDS011;71454;55.476;14.282;2024-02-16T13:59:14;18.73;;;9.33;;
81952;SDS011;71454;55.476;14.282;2024-02-16T14:01:40;19.03;;;8.90;;
81952;SDS011;71454;55.476;14.282;2024-02-16T14:04:05;18.30;;;9.77;;
81952;SDS011;71454;55.476;14.282;2024-02-16T14:06:30;19.77;;;8.98;;